sensor_id;sensor_type;location;lat;lon;timestamp;temperature;humidity
13229;DHT22;6680;53.220;10.402;2022-11-20T00:00:16;1.60;99.90
13229;DHT22;6680;53.220;10.402;2022-11-20T00:02:43;1.60;99.90
13229;DHT22;6680;53.220;10.402;2022-11-20T00:05:10;1.70;99.90
13229;DHT22;6680;53.220;10.402;2022-11-20T00:07:36;1.60;99.90
13229;DHT22;6680;53.220;10.402;2022-11-20T00:10:04;1.60;99.90
13229;DHT22;6680;53.220;10.402;2022-11-20T00:12:31;1.50;99.90
13229;DHT22;6680;53.220;10.402;2022-11-20T00:14:59;1.70;99.90
13229;DHT22;6680;53.220;10.402;2022-11-20T00:17:26;1.50;99.90
13229;DHT22;6680;53.220;10.402;2022-11-20T00:19:52;1.50;99.90
13229;DHT22;6680;53.220;10.402;2022-11-20T00:24:46;1.50;99.90
13229;DHT22;6680;53.220;10.402;2022-11-20T00:27:13;1.40;99.90
13229;DHT22;6680;53.220;10.402;2022-11-20T00:29:40;1.40;99.90
13229;DHT22;6680;53.220;10.402;2022-11-20T00:32:08;1.40;99.90
13229;DHT22;6680;53.220;10.402;2022-11-20T00:34:34;1.40;99.90
13229;DHT22;6680;53.220;10.402;2022-11-20T00:37:01;1.40;99.90
13229;DHT22;6680;53.220;10.402;2022-11-20T00:39:28;1.40;99.90
13229;DHT22;6680;53.220;10.402;2022-11-20T00:41:55;1.50;99.90
13229;DHT22;6680;53.220;10.402;2022-11-20T00:44:21;1.40;99.90
13229;DHT22;6680;53.220;10.402;2022-11-20T00:46:48;1.40;99.90
13229;DHT22;6680;53.220;10.402;2022-11-20T00:49:16;1.40;99.90
13229;DHT22;6680;53.220;10.402;2022-11-20T00:51:43;1.40;99.90
13229;DHT22;6680;53.220;10.402;2022-11-20T00:54:09;1.40;99.90
13229;DHT22;6680;53.220;10.402;2022-11-20T00:56:36;1.30;99.90
13229;DHT22;6680;53.220;10.402;2022-11-20T00:59:03;1.40;99.90
13229;DHT22;6680;53.220;10.402;2022-11-20T01:01:30;1.40;99.90
13229;DHT22;6680;53.220;10.402;2022-11-20T01:03:58;1.40;99.90
13229;DHT22;6680;53.220;10.402;2022-11-20T01:06:28;1.40;99.90
13229;DHT22;6680;53.220;10.402;2022-11-20T01:08:56;1.40;99.90
13229;DHT22;6680;53.220;10.402;2022-11-20T01:11:24;1.40;99.90
13229;DHT22;6680;53.220;10.402;2022-11-20T01:13:52;1.40;99.90
13229;DHT22;6680;53.220;10.402;2022-11-20T01:16:22;1.30;99.90
13229;DHT22;6680;53.220;10.402;2022-11-20T01:18:50;1.30;99.90
13229;DHT22;6680;53.220;10.402;2022-11-20T01:21:19;1.30;99.90
13229;DHT22;6680;53.220;10.402;2022-11-20T01:23:48;1.30;99.90
13229;DHT22;6680;53.220;10.402;2022-11-20T01:26:17;1.40;99.90
13229;DHT22;6680;53.220;10.402;2022-11-20T01:28:44;1.40;99.90
13229;DHT22;6680;53.220;10.402;2022-11-20T01:31:12;1.30;99.90
13229;DHT22;6680;53.220;10.402;2022-11-20T01:33:39;1.30;99.90
13229;DHT22;6680;53.220;10.402;2022-11-20T01:36:07;1.30;99.90
13229;DHT22;6680;53.220;10.402;2022-11-20T01:38:34;1.60;99.90
13229;DHT22;6680;53.220;10.402;2022-11-20T01:41:02;1.30;99.90
13229;DHT22;6680;53.220;10.402;2022-11-20T01:43:29;1.30;99.90
13229;DHT22;6680;53.220;10.402;2022-11-20T01:46:15;1.40;99.90
13229;DHT22;6680;53.220;10.402;2022-11-20T01:48:46;1.30;99.90
13229;DHT22;6680;53.220;10.402;2022-11-20T01:51:20;1.30;99.90
13229;DHT22;6680;53.220;10.402;2022-11-20T01:53:47;1.30;99.90
13229;DHT22;6680;53.220;10.402;2022-11-20T01:56:16;1.20;99.90
13229;DHT22;6680;53.220;10.402;2022-11-20T01:58:46;1.20;99.90
13229;DHT22;6680;53.220;10.402;2022-11-20T02:01:14;1.20;99.90
13229;DHT22;6680;53.220;10.402;2022-11-20T02:03:41;1.10;99.90
13229;DHT22;6680;53.220;10.402;2022-11-20T02:06:13;1.10;99.90
13229;DHT22;6680;53.220;10.402;2022-11-20T02:08:41;1.00;99.90
13229;DHT22;6680;53.220;10.402;2022-11-20T02:11:08;1.00;99.90
13229;DHT22;6680;53.220;10.402;2022-11-20T02:13:36;0.90;99.90
13229;DHT22;6680;53.220;10.402;2022-11-20T02:16:20;0.80;99.90
13229;DHT22;6680;53.220;10.402;2022-11-20T02:18:48;0.70;99.90
13229;DHT22;6680;53.220;10.402;2022-11-20T02:21:24;0.70;99.90
13229;DHT22;6680;53.220;10.402;2022-11-20T02:24:06;0.60;99.90
13229;DHT22;6680;53.220;10.402;2022-11-20T02:26:40;0.50;99.90
13229;DHT22;6680;53.220;10.402;2022-11-20T02:29:07;0.40;99.90
13229;DHT22;6680;53.220;10.402;2022-11-20T02:31:37;0.30;99.90
13229;DHT22;6680;53.220;10.402;2022-11-20T02:34:04;0.20;99.90
13229;DHT22;6680;53.220;10.402;2022-11-20T02:36:32;0.20;99.90
13229;DHT22;6680;53.220;10.402;2022-11-20T02:39:02;0.10;99.90
13229;DHT22;6680;53.220;10.402;2022-11-20T02:41:33;0.10;99.90
13229;DHT22;6680;53.220;10.402;2022-11-20T02:44:00;0.00;99.90
13229;DHT22;6680;53.220;10.402;2022-11-20T02:46:26;0.00;99.90
13229;DHT22;6680;53.220;10.402;2022-11-20T02:48:53;0.00;99.90
13229;DHT22;6680;53.220;10.402;2022-11-20T02:51:20;-0.10;99.90
13229;DHT22;6680;53.220;10.402;2022-11-20T02:53:47;-0.10;99.90
13229;DHT22;6680;53.220;10.402;2022-11-20T02:56:15;-0.10;99.90
13229;DHT22;6680;53.220;10.402;2022-11-20T03:01:09;0.00;99.90
13229;DHT22;6680;53.220;10.402;2022-11-20T03:03:35;-0.10;99.90
13229;DHT22;6680;53.220;10.402;2022-11-20T03:06:02;0.00;99.90
13229;DHT22;6680;53.220;10.402;2022-11-20T03:08:29;0.00;99.90
13229;DHT22;6680;53.220;10.402;2022-11-20T03:10:56;0.10;99.90
13229;DHT22;6680;53.220;10.402;2022-11-20T03:13:24;0.20;99.90
13229;DHT22;6680;53.220;10.402;2022-11-20T03:15:51;0.30;99.90
13229;DHT22;6680;53.220;10.402;2022-11-20T03:20:45;0.40;99.90
13229;DHT22;6680;53.220;10.402;2022-11-20T03:23:12;0.50;99.90
13229;DHT22;6680;53.220;10.402;2022-11-20T03:25:38;0.50;99.90
13229;DHT22;6680;53.220;10.402;2022-11-20T03:28:05;0.50;99.90
13229;DHT22;6680;53.220;10.402;2022-11-20T03:30:33;0.60;99.90
13229;DHT22;6680;53.220;10.402;2022-11-20T03:33:01;0.60;99.90
13229;DHT22;6680;53.220;10.402;2022-11-20T03:35:27;0.70;99.90
13229;DHT22;6680;53.220;10.402;2022-11-20T03:37:54;0.70;99.90
13229;DHT22;6680;53.220;10.402;2022-11-20T03:40:21;0.70;99.90
13229;DHT22;6680;53.220;10.402;2022-11-20T03:42:47;0.70;99.90
13229;DHT22;6680;53.220;10.402;2022-11-20T03:45:16;0.80;99.90
13229;DHT22;6680;53.220;10.402;2022-11-20T03:47:45;0.80;99.90
13229;DHT22;6680;53.220;10.402;2022-11-20T03:50:13;0.80;99.90
13229;DHT22;6680;53.220;10.402;2022-11-20T03:52:40;0.80;99.90
13229;DHT22;6680;53.220;10.402;2022-11-20T03:55:07;0.70;99.90
13229;DHT22;6680;53.220;10.402;2022-11-20T03:57:34;0.80;99.90
13229;DHT22;6680;53.220;10.402;2022-11-20T04:00:01;0.80;99.90
13229;DHT22;6680;53.220;10.402;2022-11-20T04:02:28;0.80;99.90
13229;DHT22;6680;53.220;10.402;2022-11-20T04:04:56;0.70;99.90
13229;DHT22;6680;53.220;10.402;2022-11-20T04:07:22;0.70;99.90
13229;DHT22;6680;53.220;10.402;2022-11-20T04:09:49;0.70;99.90
13229;DHT22;6680;53.220;10.402;2022-11-20T04:12:16;0.60;99.90
13229;DHT22;6680;53.220;10.402;2022-11-20T04:14:42;0.60;99.90
13229;DHT22;6680;53.220;10.402;2022-11-20T04:17:09;0.60;99.90
13229;DHT22;6680;53.220;10.402;2022-11-20T04:19:36;0.60;99.90
13229;DHT22;6680;53.220;10.402;2022-11-20T04:22:04;0.60;99.90
13229;DHT22;6680;53.220;10.402;2022-11-20T04:24:31;0.70;99.90
13229;DHT22;6680;53.220;10.402;2022-11-20T04:26:57;0.70;99.90
13229;DHT22;6680;53.220;10.402;2022-11-20T04:29:24;0.70;99.90
13229;DHT22;6680;53.220;10.402;2022-11-20T04:31:51;0.80;99.90
13229;DHT22;6680;53.220;10.402;2022-11-20T04:34:17;0.80;99.90
13229;DHT22;6680;53.220;10.402;2022-11-20T04:36:44;0.80;99.90
13229;DHT22;6680;53.220;10.402;2022-11-20T04:39:13;0.80;99.90
13229;DHT22;6680;53.220;10.402;2022-11-20T04:41:41;0.90;99.90
13229;DHT22;6680;53.220;10.402;2022-11-20T04:44:07;0.90;99.90
13229;DHT22;6680;53.220;10.402;2022-11-20T04:46:36;0.90;99.90
13229;DHT22;6680;53.220;10.402;2022-11-20T04:49:03;0.90;99.90
13229;DHT22;6680;53.220;10.402;2022-11-20T04:53:57;1.00;99.90
13229;DHT22;6680;53.220;10.402;2022-11-20T04:56:25;1.00;99.90
13229;DHT22;6680;53.220;10.402;2022-11-20T04:58:52;1.00;99.90
13229;DHT22;6680;53.220;10.402;2022-11-20T05:01:20;1.00;99.90
13229;DHT22;6680;53.220;10.402;2022-11-20T05:03:47;1.00;99.90
13229;DHT22;6680;53.220;10.402;2022-11-20T05:06:16;1.00;99.90
13229;DHT22;6680;53.220;10.402;2022-11-20T05:08:43;1.00;99.90
13229;DHT22;6680;53.220;10.402;2022-11-20T05:11:11;1.00;99.90
13229;DHT22;6680;53.220;10.402;2022-11-20T05:13:39;1.00;99.90
13229;DHT22;6680;53.220;10.402;2022-11-20T05:16:08;1.00;99.90
13229;DHT22;6680;53.220;10.402;2022-11-20T05:18:35;1.00;99.90
13229;DHT22;6680;53.220;10.402;2022-11-20T05:21:02;1.00;99.90
13229;DHT22;6680;53.220;10.402;2022-11-20T05:23:29;1.00;99.90
13229;DHT22;6680;53.220;10.402;2022-11-20T05:25:57;1.00;99.90
13229;DHT22;6680;53.220;10.402;2022-11-20T05:28:25;1.10;99.90
13229;DHT22;6680;53.220;10.402;2022-11-20T05:30:53;1.10;99.90
13229;DHT22;6680;53.220;10.402;2022-11-20T05:33:20;1.10;99.90
13229;DHT22;6680;53.220;10.402;2022-11-20T05:35:47;1.10;99.90
13229;DHT22;6680;53.220;10.402;2022-11-20T05:38:14;1.10;99.90
13229;DHT22;6680;53.220;10.402;2022-11-20T05:40:41;1.00;99.90
13229;DHT22;6680;53.220;10.402;2022-11-20T05:43:08;1.00;99.90
13229;DHT22;6680;53.220;10.402;2022-11-20T05:45:34;1.10;99.90
13229;DHT22;6680;53.220;10.402;2022-11-20T05:48:03;1.10;99.90
13229;DHT22;6680;53.220;10.402;2022-11-20T05:50:30;1.10;99.90
13229;DHT22;6680;53.220;10.402;2022-11-20T05:52:58;1.10;99.90
13229;DHT22;6680;53.220;10.402;2022-11-20T05:55:25;1.10;99.90
13229;DHT22;6680;53.220;10.402;2022-11-20T05:57:52;1.10;99.90
13229;DHT22;6680;53.220;10.402;2022-11-20T06:00:19;1.20;99.90
13229;DHT22;6680;53.220;10.402;2022-11-20T06:02:46;1.20;99.90
13229;DHT22;6680;53.220;10.402;2022-11-20T06:05:14;1.30;99.90
13229;DHT22;6680;53.220;10.402;2022-11-20T06:07:41;1.10;99.90
13229;DHT22;6680;53.220;10.402;2022-11-20T06:10:08;1.20;99.90
13229;DHT22;6680;53.220;10.402;2022-11-20T06:12:35;1.10;99.90
13229;DHT22;6680;53.220;10.402;2022-11-20T06:15:02;1.10;99.90
13229;DHT22;6680;53.220;10.402;2022-11-20T06:17:29;1.10;99.90
13229;DHT22;6680;53.220;10.402;2022-11-20T06:19:55;1.10;99.90
13229;DHT22;6680;53.220;10.402;2022-11-20T06:22:23;1.00;99.90
13229;DHT22;6680;53.220;10.402;2022-11-20T06:24:50;1.00;99.90
13229;DHT22;6680;53.220;10.402;2022-11-20T06:29:44;1.00;99.90
13229;DHT22;6680;53.220;10.402;2022-11-20T06:32:10;1.00;99.90
13229;DHT22;6680;53.220;10.402;2022-11-20T06:34:37;0.90;99.90
13229;DHT22;6680;53.220;10.402;2022-11-20T06:37:04;1.00;99.90
13229;DHT22;6680;53.220;10.402;2022-11-20T06:39:32;0.90;99.90
13229;DHT22;6680;53.220;10.402;2022-11-20T06:41:58;0.90;99.90
13229;DHT22;6680;53.220;10.402;2022-11-20T06:44:26;0.80;99.90
13229;DHT22;6680;53.220;10.402;2022-11-20T06:46:53;0.80;99.90
13229;DHT22;6680;53.220;10.402;2022-11-20T06:49:19;0.80;99.90
13229;DHT22;6680;53.220;10.402;2022-11-20T06:51:46;0.80;99.90
13229;DHT22;6680;53.220;10.402;2022-11-20T06:54:12;0.80;99.90
13229;DHT22;6680;53.220;10.402;2022-11-20T06:56:40;0.80;99.90
13229;DHT22;6680;53.220;10.402;2022-11-20T06:59:07;0.80;99.90
13229;DHT22;6680;53.220;10.402;2022-11-20T07:01:34;0.80;99.90
13229;DHT22;6680;53.220;10.402;2022-11-20T07:06:28;0.80;99.90
13229;DHT22;6680;53.220;10.402;2022-11-20T07:08:55;0.80;99.90
13229;DHT22;6680;53.220;10.402;2022-11-20T07:11:22;0.80;99.90
13229;DHT22;6680;53.220;10.402;2022-11-20T07:13:50;0.80;99.90
13229;DHT22;6680;53.220;10.402;2022-11-20T07:16:16;0.80;99.90
13229;DHT22;6680;53.220;10.402;2022-11-20T07:18:43;0.80;99.90
13229;DHT22;6680;53.220;10.402;2022-11-20T07:21:10;0.80;99.90
13229;DHT22;6680;53.220;10.402;2022-11-20T07:23:37;0.80;99.90
13229;DHT22;6680;53.220;10.402;2022-11-20T07:26:05;0.80;99.90
13229;DHT22;6680;53.220;10.402;2022-11-20T07:28:31;0.80;99.90
13229;DHT22;6680;53.220;10.402;2022-11-20T07:31:00;0.80;99.90
13229;DHT22;6680;53.220;10.402;2022-11-20T07:33:27;0.80;99.90
13229;DHT22;6680;53.220;10.402;2022-11-20T07:35:53;0.90;99.90
13229;DHT22;6680;53.220;10.402;2022-11-20T07:38:20;0.90;99.90
13229;DHT22;6680;53.220;10.402;2022-11-20T07:40:47;0.90;99.90
13229;DHT22;6680;53.220;10.402;2022-11-20T07:43:14;0.90;99.90
13229;DHT22;6680;53.220;10.402;2022-11-20T07:45:40;1.00;99.90
13229;DHT22;6680;53.220;10.402;2022-11-20T07:48:08;1.00;99.90
13229;DHT22;6680;53.220;10.402;2022-11-20T07:53:03;1.10;99.90
13229;DHT22;6680;53.220;10.402;2022-11-20T07:55:30;1.10;99.90
13229;DHT22;6680;53.220;10.402;2022-11-20T08:00:25;1.20;99.90
13229;DHT22;6680;53.220;10.402;2022-11-20T08:02:52;1.20;99.90
13229;DHT22;6680;53.220;10.402;2022-11-20T08:05:20;1.20;99.90
13229;DHT22;6680;53.220;10.402;2022-11-20T08:07:47;1.20;99.90
13229;DHT22;6680;53.220;10.402;2022-11-20T08:10:15;1.30;99.90
13229;DHT22;6680;53.220;10.402;2022-11-20T08:12:45;1.30;99.90
13229;DHT22;6680;53.220;10.402;2022-11-20T08:15:30;1.40;99.90
13229;DHT22;6680;53.220;10.402;2022-11-20T08:18:01;1.40;99.90
13229;DHT22;6680;53.220;10.402;2022-11-20T08:20:30;1.50;99.90
13229;DHT22;6680;53.220;10.402;2022-11-20T08:23:00;1.50;99.90
13229;DHT22;6680;53.220;10.402;2022-11-20T08:25:28;1.60;99.90
13229;DHT22;6680;53.220;10.402;2022-11-20T08:27:57;1.60;99.90
13229;DHT22;6680;53.220;10.402;2022-11-20T08:30:24;1.70;99.90
13229;DHT22;6680;53.220;10.402;2022-11-20T08:32:51;1.70;99.90
13229;DHT22;6680;53.220;10.402;2022-11-20T08:35:18;1.80;99.90
13229;DHT22;6680;53.220;10.402;2022-11-20T08:37:47;1.70;99.90
13229;DHT22;6680;53.220;10.402;2022-11-20T08:40:15;1.80;99.90
13229;DHT22;6680;53.220;10.402;2022-11-20T08:42:46;1.70;99.90
13229;DHT22;6680;53.220;10.402;2022-11-20T08:45:13;1.60;99.90
13229;DHT22;6680;53.220;10.402;2022-11-20T08:47:40;1.70;99.90
13229;DHT22;6680;53.220;10.402;2022-11-20T08:50:08;1.70;99.90
13229;DHT22;6680;53.220;10.402;2022-11-20T08:55:05;1.80;99.90
13229;DHT22;6680;53.220;10.402;2022-11-20T08:57:32;1.80;99.90
13229;DHT22;6680;53.220;10.402;2022-11-20T08:59:59;1.90;99.90
13229;DHT22;6680;53.220;10.402;2022-11-20T09:02:26;1.90;99.90
13229;DHT22;6680;53.220;10.402;2022-11-20T09:04:52;2.00;99.90
13229;DHT22;6680;53.220;10.402;2022-11-20T09:09:47;2.10;99.90
13229;DHT22;6680;53.220;10.402;2022-11-20T09:12:15;2.30;99.90
13229;DHT22;6680;53.220;10.402;2022-11-20T09:14:42;2.40;99.90
13229;DHT22;6680;53.220;10.402;2022-11-20T09:17:10;2.50;99.90
13229;DHT22;6680;53.220;10.402;2022-11-20T09:19:39;2.60;99.90
13229;DHT22;6680;53.220;10.402;2022-11-20T09:22:05;2.60;99.90
13229;DHT22;6680;53.220;10.402;2022-11-20T09:24:32;2.60;99.90
13229;DHT22;6680;53.220;10.402;2022-11-20T09:27:01;2.70;99.90
13229;DHT22;6680;53.220;10.402;2022-11-20T09:29:30;2.80;99.90
13229;DHT22;6680;53.220;10.402;2022-11-20T09:31:56;2.80;99.90
13229;DHT22;6680;53.220;10.402;2022-11-20T09:34:23;2.80;99.90
13229;DHT22;6680;53.220;10.402;2022-11-20T09:36:50;2.90;99.90
13229;DHT22;6680;53.220;10.402;2022-11-20T09:39:16;2.90;99.90
13229;DHT22;6680;53.220;10.402;2022-11-20T09:44:48;3.00;99.90
13229;DHT22;6680;53.220;10.402;2022-11-20T09:47:21;3.00;99.90
13229;DHT22;6680;53.220;10.402;2022-11-20T09:50:05;3.00;99.90
13229;DHT22;6680;53.220;10.402;2022-11-20T09:52:42;3.00;99.90
13229;DHT22;6680;53.220;10.402;2022-11-20T09:55:11;3.00;99.90
13229;DHT22;6680;53.220;10.402;2022-11-20T09:57:42;3.00;99.90
13229;DHT22;6680;53.220;10.402;2022-11-20T10:00:12;2.90;99.90
13229;DHT22;6680;53.220;10.402;2022-11-20T10:02:42;2.90;99.90
13229;DHT22;6680;53.220;10.402;2022-11-20T10:05:17;2.70;99.90
13229;DHT22;6680;53.220;10.402;2022-11-20T10:07:48;2.60;99.90
13229;DHT22;6680;53.220;10.402;2022-11-20T10:10:29;2.50;99.90
13229;DHT22;6680;53.220;10.402;2022-11-20T10:13:07;2.40;99.90
13229;DHT22;6680;53.220;10.402;2022-11-20T10:15:45;2.40;99.90
13229;DHT22;6680;53.220;10.402;2022-11-20T10:18:23;2.50;99.90
13229;DHT22;6680;53.220;10.402;2022-11-20T10:21:02;2.50;99.90
13229;DHT22;6680;53.220;10.402;2022-11-20T10:23:47;2.70;99.90
13229;DHT22;6680;53.220;10.402;2022-11-20T10:26:22;2.90;99.90
13229;DHT22;6680;53.220;10.402;2022-11-20T10:29:00;3.10;99.90
13229;DHT22;6680;53.220;10.402;2022-11-20T10:31:31;3.20;99.90
13229;DHT22;6680;53.220;10.402;2022-11-20T10:34:01;3.20;99.90
13229;DHT22;6680;53.220;10.402;2022-11-20T10:36:34;3.20;99.90
13229;DHT22;6680;53.220;10.402;2022-11-20T10:39:07;3.20;99.90
13229;DHT22;6680;53.220;10.402;2022-11-20T10:41:40;3.20;99.90
13229;DHT22;6680;53.220;10.402;2022-11-20T10:44:12;3.20;99.90
13229;DHT22;6680;53.220;10.402;2022-11-20T10:46:44;3.20;99.90
13229;DHT22;6680;53.220;10.402;2022-11-20T10:49:13;3.00;99.90
13229;DHT22;6680;53.220;10.402;2022-11-20T10:51:50;2.90;99.90
13229;DHT22;6680;53.220;10.402;2022-11-20T10:54:24;2.90;99.90
13229;DHT22;6680;53.220;10.402;2022-11-20T10:56:58;2.80;99.90
13229;DHT22;6680;53.220;10.402;2022-11-20T10:59:45;2.80;99.90
13229;DHT22;6680;53.220;10.402;2022-11-20T11:02:18;2.70;99.90
13229;DHT22;6680;53.220;10.402;2022-11-20T11:04:46;2.90;99.90
13229;DHT22;6680;53.220;10.402;2022-11-20T11:07:16;3.00;99.90
13229;DHT22;6680;53.220;10.402;2022-11-20T11:09:47;3.00;99.90
13229;DHT22;6680;53.220;10.402;2022-11-20T11:12:15;3.00;99.90
13229;DHT22;6680;53.220;10.402;2022-11-20T11:14:47;2.90;99.90
13229;DHT22;6680;53.220;10.402;2022-11-20T11:17:24;2.80;99.90
13229;DHT22;6680;53.220;10.402;2022-11-20T11:20:00;2.80;99.90
13229;DHT22;6680;53.220;10.402;2022-11-20T11:22:29;2.70;99.90
13229;DHT22;6680;53.220;10.402;2022-11-20T11:24:56;2.70;99.90
13229;DHT22;6680;53.220;10.402;2022-11-20T11:27:23;2.60;99.90
13229;DHT22;6680;53.220;10.402;2022-11-20T11:29:49;2.50;99.90
13229;DHT22;6680;53.220;10.402;2022-11-20T11:32:19;2.60;99.90
13229;DHT22;6680;53.220;10.402;2022-11-20T11:34:59;2.60;99.90
13229;DHT22;6680;53.220;10.402;2022-11-20T11:37:33;2.70;99.90
13229;DHT22;6680;53.220;10.402;2022-11-20T11:40:01;2.80;99.90
13229;DHT22;6680;53.220;10.402;2022-11-20T11:42:28;3.00;99.90
13229;DHT22;6680;53.220;10.402;2022-11-20T11:44:57;3.20;99.90
13229;DHT22;6680;53.220;10.402;2022-11-20T11:47:36;3.30;99.90
13229;DHT22;6680;53.220;10.402;2022-11-20T11:50:18;3.40;99.90
13229;DHT22;6680;53.220;10.402;2022-11-20T11:52:54;3.60;99.90
13229;DHT22;6680;53.220;10.402;2022-11-20T11:55:29;3.70;99.90
13229;DHT22;6680;53.220;10.402;2022-11-20T11:58:04;3.90;99.90
13229;DHT22;6680;53.220;10.402;2022-11-20T12:00:35;3.90;99.90
13229;DHT22;6680;53.220;10.402;2022-11-20T12:03:07;4.00;99.90
13229;DHT22;6680;53.220;10.402;2022-11-20T12:05:43;4.00;99.90
13229;DHT22;6680;53.220;10.402;2022-11-20T12:08:16;4.00;99.90
13229;DHT22;6680;53.220;10.402;2022-11-20T12:10:48;4.10;99.90
13229;DHT22;6680;53.220;10.402;2022-11-20T12:13:30;4.00;99.90
13229;DHT22;6680;53.220;10.402;2022-11-20T12:16:02;4.20;99.90
13229;DHT22;6680;53.220;10.402;2022-11-20T12:18:29;4.30;99.90
13229;DHT22;6680;53.220;10.402;2022-11-20T12:21:07;4.30;99.90
13229;DHT22;6680;53.220;10.402;2022-11-20T12:23:44;4.50;99.90
13229;DHT22;6680;53.220;10.402;2022-11-20T12:26:31;4.60;99.90
13229;DHT22;6680;53.220;10.402;2022-11-20T12:29:08;4.60;99.90
13229;DHT22;6680;53.220;10.402;2022-11-20T12:34:38;4.90;99.90
13229;DHT22;6680;53.220;10.402;2022-11-20T12:37:17;4.90;99.90
13229;DHT22;6680;53.220;10.402;2022-11-20T12:39:49;5.00;99.90
13229;DHT22;6680;53.220;10.402;2022-11-20T12:42:39;5.00;99.90
13229;DHT22;6680;53.220;10.402;2022-11-20T12:45:47;5.00;99.90
13229;DHT22;6680;53.220;10.402;2022-11-20T12:48:50;5.20;99.90
13229;DHT22;6680;53.220;10.402;2022-11-20T12:51:36;5.30;99.90
13229;DHT22;6680;53.220;10.402;2022-11-20T12:54:29;5.10;99.90
13229;DHT22;6680;53.220;10.402;2022-11-20T12:57:05;5.10;99.90
13229;DHT22;6680;53.220;10.402;2022-11-20T12:59:46;5.00;99.90
13229;DHT22;6680;53.220;10.402;2022-11-20T13:02:23;4.80;99.90
13229;DHT22;6680;53.220;10.402;2022-11-20T13:05:03;4.70;99.90
13229;DHT22;6680;53.220;10.402;2022-11-20T13:07:33;4.70;99.90
13229;DHT22;6680;53.220;10.402;2022-11-20T13:10:04;4.70;99.90
13229;DHT22;6680;53.220;10.402;2022-11-20T13:12:36;4.50;99.90
13229;DHT22;6680;53.220;10.402;2022-11-20T13:15:14;4.10;99.90
13229;DHT22;6680;53.220;10.402;2022-11-20T13:17:50;4.20;99.90
13229;DHT22;6680;53.220;10.402;2022-11-20T13:20:19;4.10;99.90
13229;DHT22;6680;53.220;10.402;2022-11-20T13:22:47;4.10;99.90
13229;DHT22;6680;53.220;10.402;2022-11-20T13:25:26;3.70;99.90
13229;DHT22;6680;53.220;10.402;2022-11-20T13:27:54;3.70;99.90
13229;DHT22;6680;53.220;10.402;2022-11-20T13:30:22;3.70;99.90
13229;DHT22;6680;53.220;10.402;2022-11-20T13:32:51;3.70;99.90
13229;DHT22;6680;53.220;10.402;2022-11-20T13:35:27;3.70;99.90
13229;DHT22;6680;53.220;10.402;2022-11-20T13:38:05;3.70;99.90
13229;DHT22;6680;53.220;10.402;2022-11-20T13:40:36;3.60;99.90
13229;DHT22;6680;53.220;10.402;2022-11-20T13:43:19;3.60;99.90
13229;DHT22;6680;53.220;10.402;2022-11-20T13:45:58;3.50;99.90
13229;DHT22;6680;53.220;10.402;2022-11-20T13:48:29;3.50;99.90
13229;DHT22;6680;53.220;10.402;2022-11-20T13:51:07;3.40;99.90
13229;DHT22;6680;53.220;10.402;2022-11-20T13:54:01;3.30;99.90
13229;DHT22;6680;53.220;10.402;2022-11-20T13:56:39;3.30;99.90
13229;DHT22;6680;53.220;10.402;2022-11-20T13:59:15;3.30;99.90
13229;DHT22;6680;53.220;10.402;2022-11-20T14:04:18;3.20;99.90
13229;DHT22;6680;53.220;10.402;2022-11-20T14:06:47;3.20;99.90
13229;DHT22;6680;53.220;10.402;2022-11-20T14:09:25;3.20;99.90
13229;DHT22;6680;53.220;10.402;2022-11-20T14:11:54;3.20;99.90
13229;DHT22;6680;53.220;10.402;2022-11-20T14:14:22;3.30;99.90
13229;DHT22;6680;53.220;10.402;2022-11-20T14:16:51;3.20;99.90
13229;DHT22;6680;53.220;10.402;2022-11-20T14:19:28;3.20;99.90
13229;DHT22;6680;53.220;10.402;2022-11-20T14:22:08;3.10;99.90
13229;DHT22;6680;53.220;10.402;2022-11-20T14:24:35;3.10;99.90
13229;DHT22;6680;53.220;10.402;2022-11-20T14:27:03;3.00;99.90
13229;DHT22;6680;53.220;10.402;2022-11-20T14:29:34;3.00;99.90
13229;DHT22;6680;53.220;10.402;2022-11-20T14:32:01;2.90;99.90
13229;DHT22;6680;53.220;10.402;2022-11-20T14:34:30;2.80;99.90
13229;DHT22;6680;53.220;10.402;2022-11-20T14:37:00;2.60;99.90
13229;DHT22;6680;53.220;10.402;2022-11-20T14:39:30;2.50;99.90
13229;DHT22;6680;53.220;10.402;2022-11-20T14:41:58;2.40;99.90
13229;DHT22;6680;53.220;10.402;2022-11-20T14:44:30;2.30;99.90
13229;DHT22;6680;53.220;10.402;2022-11-20T14:46:59;2.20;99.90
13229;DHT22;6680;53.220;10.402;2022-11-20T14:49:26;2.20;99.90
13229;DHT22;6680;53.220;10.402;2022-11-20T14:51:59;2.20;99.90
13229;DHT22;6680;53.220;10.402;2022-11-20T14:54:26;2.20;99.90
13229;DHT22;6680;53.220;10.402;2022-11-20T14:56:54;2.30;99.90
13229;DHT22;6680;53.220;10.402;2022-11-20T14:59:23;2.30;99.90
13229;DHT22;6680;53.220;10.402;2022-11-20T15:01:57;2.30;99.90
13229;DHT22;6680;53.220;10.402;2022-11-20T15:04:24;2.30;99.90
13229;DHT22;6680;53.220;10.402;2022-11-20T15:06:53;2.30;99.90
13229;DHT22;6680;53.220;10.402;2022-11-20T15:09:21;2.40;99.90
13229;DHT22;6680;53.220;10.402;2022-11-20T15:11:54;2.40;99.90
13229;DHT22;6680;53.220;10.402;2022-11-20T15:14:21;2.40;99.90
13229;DHT22;6680;53.220;10.402;2022-11-20T15:16:48;2.40;99.90
13229;DHT22;6680;53.220;10.402;2022-11-20T15:19:19;2.30;99.90
13229;DHT22;6680;53.220;10.402;2022-11-20T15:21:47;2.20;99.90
13229;DHT22;6680;53.220;10.402;2022-11-20T15:26:41;1.90;99.90
13229;DHT22;6680;53.220;10.402;2022-11-20T15:29:10;1.80;99.90
13229;DHT22;6680;53.220;10.402;2022-11-20T15:31:37;1.60;99.90
13229;DHT22;6680;53.220;10.402;2022-11-20T15:34:09;1.50;99.90
13229;DHT22;6680;53.220;10.402;2022-11-20T15:36:38;1.40;99.90
13229;DHT22;6680;53.220;10.402;2022-11-20T15:39:05;1.30;99.90
13229;DHT22;6680;53.220;10.402;2022-11-20T15:41:32;1.10;99.90
13229;DHT22;6680;53.220;10.402;2022-11-20T15:43:59;1.10;99.90
13229;DHT22;6680;53.220;10.402;2022-11-20T15:46:27;1.10;99.90
13229;DHT22;6680;53.220;10.402;2022-11-20T15:48:55;1.10;99.90
13229;DHT22;6680;53.220;10.402;2022-11-20T15:51:26;1.10;99.90
13229;DHT22;6680;53.220;10.402;2022-11-20T15:53:55;1.10;99.90
13229;DHT22;6680;53.220;10.402;2022-11-20T15:56:22;1.20;99.90
13229;DHT22;6680;53.220;10.402;2022-11-20T15:58:49;1.20;99.90
13229;DHT22;6680;53.220;10.402;2022-11-20T16:01:17;1.20;99.90
13229;DHT22;6680;53.220;10.402;2022-11-20T16:03:45;1.30;99.90
13229;DHT22;6680;53.220;10.402;2022-11-20T16:06:12;1.30;99.90
13229;DHT22;6680;53.220;10.402;2022-11-20T16:08:39;1.30;99.90
13229;DHT22;6680;53.220;10.402;2022-11-20T16:11:09;1.30;99.90
13229;DHT22;6680;53.220;10.402;2022-11-20T16:13:36;1.40;99.90
13229;DHT22;6680;53.220;10.402;2022-11-20T16:16:22;1.40;99.90
13229;DHT22;6680;53.220;10.402;2022-11-20T16:18:50;1.40;99.90
13229;DHT22;6680;53.220;10.402;2022-11-20T16:21:17;1.40;99.90
13229;DHT22;6680;53.220;10.402;2022-11-20T16:23:44;1.40;99.90
13229;DHT22;6680;53.220;10.402;2022-11-20T16:26:13;1.30;99.90
13229;DHT22;6680;53.220;10.402;2022-11-20T16:28:41;1.20;99.90
13229;DHT22;6680;53.220;10.402;2022-11-20T16:31:09;1.30;99.90
13229;DHT22;6680;53.220;10.402;2022-11-20T16:33:35;1.30;99.90
13229;DHT22;6680;53.220;10.402;2022-11-20T16:36:07;1.30;99.90